Castellon de la Plana, Spain
Current Conditions -  °F | °C
As of 6:00 PM on Friday 31 Oct 2014 (Local Time) from LEBT Reporting Station
Clear Clear  
Wind Chill: 68°   Ceiling: Unl
Heat Index: 68°   Visibility: 6mi
Dew Point: 61°   Wind: 3mph
Humidity: 78%   Direction: 100°E
Pressure: 30.21"   Gusts: NA
Location:  39.96°N, 0.26°E
Report Text: LEBT 311700Z AUTO 10003KT 070V140 CAVOK 20/16 Q1023
Loading
Personal Weather Stations






























Interactive Weather Map
Tropical Storm Tracking
New forecast layout! Learn more

10-Day Weather Forecast

Advertisements
Track Severe Weather on mobile